Ana Sayfa
METAR-TAF:

METAR-TAF

Havaalanları :

Caracas, Venezuela

Enlem: 10-36N, Boylam: 066-59W, yükseklik: 43 m

Güncel hava durumu gözlemi

Rapor saat 15:00 UTC de 50 dakika önce yapıldı.
Rüzgar doğu/güneydoğudan 4 kt
Sıcaklık 29°C
Nem 74%
Basınç 1014 hPa
Görüş mesafesi 10 km veya daha fazla
1600 ft yükseklikte parçalı çok bulutlu

METAR: SVMI 211500Z 11004KT 9999 BKN016 29/24 Q1014

Saat: 11:50 (15:50 UTC)

Tahmin

Rapor saat 10:00 UTC de 5 saat ve 50 dakika önce yapıldı.
Ayın 21'si saat 12 UTC'den ayın 22'si saat 12 UTC'ye kadar geçerli Tahmin
Rüzgar kuzeydan kt
Görüş mesafesi 10 km veya daha fazla
1600 ft yükseklikte parçalı bulutlu
Geçici
ayın 21'si saat 14 UTC'den ayın 21'si saat 18 UTC'ye kadar
Rüzgar doğudan 8 kt
Görüş mesafesi: 9000 m
1600 ft yükseklikte parçalı çok bulutlu
İstasyon Civarında/ Çevresinde, çisenti

TAF: SVMI 211000Z 2112/2212 00000KT 9999 SCT016 TX33/19Z TN24/09Z TEMPO 2114/2118 09008KT 9000 VCDZ BKN016

4.000'den fazla havaalanı için hava durumu gözlemleri ve tahminleri (METAR ve TAF raporları).

Kullanılabilir istasyonlar harita üzerinde sarı ve kırmızı noktalarla gösterilir.

İstasyonun adını görmek için fareyi noktanın üzerinde gezdirin.

Sonrasında hava gözlem ve tahminlerini görmek için tıklayın.

Haritayı değiştirmek için: yaklaştırmak için siyah artı işaretli yeşil düğmeye ve uzaklaştırmak için de eksi işaretli düğmeye hızla tıklayın; bitişik haritalar için yeşil okları kullanın.


METAR-TAF: